sensor_id;sensor_type;location;lat;lon;timestamp;P1;durP1;ratioP1;P2;durP2;ratioP2
81672;SDS011;71092;41.158;-8.680;2024-03-07T00:02:19;8.98;;;3.10;;
81672;SDS011;71092;41.158;-8.680;2024-03-07T00:04:46;8.05;;;2.55;;
81672;SDS011;71092;41.158;-8.680;2024-03-07T00:07:12;8.20;;;2.88;;
81672;SDS011;71092;41.158;-8.680;2024-03-07T00:09:38;8.60;;;2.65;;
81672;SDS011;71092;41.158;-8.680;2024-03-07T00:12:04;9.27;;;3.03;;
81672;SDS011;71092;41.158;-8.680;2024-03-07T00:14:31;9.68;;;2.78;;
81672;SDS011;71092;41.158;-8.680;2024-03-07T00:16:57;7.30;;;2.35;;
81672;SDS011;71092;41.158;-8.680;2024-03-07T00:19:26;7.45;;;2.58;;
81672;SDS011;71092;41.158;-8.680;2024-03-07T00:21:52;7.78;;;2.72;;
81672;SDS011;71092;41.158;-8.680;2024-03-07T00:24:22;7.00;;;2.40;;
81672;SDS011;71092;41.158;-8.680;2024-03-07T00:26:53;6.10;;;2.67;;
81672;SDS011;71092;41.158;-8.680;2024-03-07T00:29:19;5.13;;;2.22;;
81672;SDS011;71092;41.158;-8.680;2024-03-07T00:31:45;5.78;;;2.85;;
81672;SDS011;71092;41.158;-8.680;2024-03-07T00:34:15;8.32;;;2.88;;
81672;SDS011;71092;41.158;-8.680;2024-03-07T00:36:45;9.30;;;2.42;;
81672;SDS011;71092;41.158;-8.680;2024-03-07T00:39:12;6.88;;;2.58;;
81672;SDS011;71092;41.158;-8.680;2024-03-07T00:41:38;7.22;;;2.67;;
81672;SDS011;71092;41.158;-8.680;2024-03-07T00:44:05;8.43;;;3.05;;
81672;SDS011;71092;41.158;-8.680;2024-03-07T00:46:32;7.00;;;2.58;;
81672;SDS011;71092;41.158;-8.680;2024-03-07T00:48:58;5.82;;;2.53;;
81672;SDS011;71092;41.158;-8.680;2024-03-07T00:51:27;9.90;;;2.38;;
81672;SDS011;71092;41.158;-8.680;2024-03-07T00:53:53;6.72;;;2.33;;
81672;SDS011;71092;41.158;-8.680;2024-03-07T00:56:20;7.63;;;2.60;;
81672;SDS011;71092;41.158;-8.680;2024-03-07T00:58:50;8.25;;;2.38;;
81672;SDS011;71092;41.158;-8.680;2024-03-07T01:01:16;5.32;;;2.42;;
81672;SDS011;71092;41.158;-8.680;2024-03-07T01:03:44;9.40;;;2.45;;
81672;SDS011;71092;41.158;-8.680;2024-03-07T01:06:10;10.00;;;2.60;;
81672;SDS011;71092;41.158;-8.680;2024-03-07T01:08:36;9.88;;;2.20;;
81672;SDS011;71092;41.158;-8.680;2024-03-07T01:11:03;5.22;;;2.15;;
81672;SDS011;71092;41.158;-8.680;2024-03-07T01:13:39;4.30;;;1.90;;
81672;SDS011;71092;41.158;-8.680;2024-03-07T01:16:05;8.60;;;2.45;;
81672;SDS011;71092;41.158;-8.680;2024-03-07T01:18:31;8.00;;;2.88;;
81672;SDS011;71092;41.158;-8.680;2024-03-07T01:21:03;8.05;;;2.90;;
81672;SDS011;71092;41.158;-8.680;2024-03-07T01:23:30;7.80;;;2.90;;
81672;SDS011;71092;41.158;-8.680;2024-03-07T01:25:57;9.25;;;2.63;;
81672;SDS011;71092;41.158;-8.680;2024-03-07T01:28:25;6.78;;;2.22;;
81672;SDS011;71092;41.158;-8.680;2024-03-07T01:30:51;7.75;;;2.70;;
81672;SDS011;71092;41.158;-8.680;2024-03-07T01:33:21;6.60;;;2.75;;
81672;SDS011;71092;41.158;-8.680;2024-03-07T01:35:47;6.93;;;2.20;;
81672;SDS011;71092;41.158;-8.680;2024-03-07T01:38:14;5.57;;;2.22;;
81672;SDS011;71092;41.158;-8.680;2024-03-07T01:40:40;7.50;;;2.47;;
81672;SDS011;71092;41.158;-8.680;2024-03-07T01:43:07;7.93;;;2.40;;
81672;SDS011;71092;41.158;-8.680;2024-03-07T01:45:34;8.18;;;2.25;;
81672;SDS011;71092;41.158;-8.680;2024-03-07T01:48:04;9.60;;;2.70;;
81672;SDS011;71092;41.158;-8.680;2024-03-07T01:50:31;5.97;;;1.95;;
81672;SDS011;71092;41.158;-8.680;2024-03-07T01:52:58;8.07;;;2.30;;
81672;SDS011;71092;41.158;-8.680;2024-03-07T01:55:25;7.50;;;2.08;;
81672;SDS011;71092;41.158;-8.680;2024-03-07T01:57:52;6.38;;;2.50;;
81672;SDS011;71092;41.158;-8.680;2024-03-07T02:00:27;7.47;;;2.25;;
81672;SDS011;71092;41.158;-8.680;2024-03-07T02:05:22;10.63;;;2.97;;
81672;SDS011;71092;41.158;-8.680;2024-03-07T02:07:49;10.27;;;2.25;;
81672;SDS011;71092;41.158;-8.680;2024-03-07T02:10:15;9.07;;;3.13;;
81672;SDS011;71092;41.158;-8.680;2024-03-07T02:12:43;7.45;;;2.50;;
81672;SDS011;71092;41.158;-8.680;2024-03-07T02:15:09;14.00;;;2.35;;
81672;SDS011;71092;41.158;-8.680;2024-03-07T02:20:01;8.90;;;2.35;;
81672;SDS011;71092;41.158;-8.680;2024-03-07T02:22:29;10.75;;;2.75;;
81672;SDS011;71092;41.158;-8.680;2024-03-07T02:24:56;8.02;;;2.58;;
81672;SDS011;71092;41.158;-8.680;2024-03-07T02:27:22;8.98;;;2.35;;
81672;SDS011;71092;41.158;-8.680;2024-03-07T02:29:48;6.90;;;2.60;;
81672;SDS011;71092;41.158;-8.680;2024-03-07T02:32:14;7.13;;;2.10;;
81672;SDS011;71092;41.158;-8.680;2024-03-07T02:37:06;7.47;;;2.17;;
81672;SDS011;71092;41.158;-8.680;2024-03-07T02:39:35;8.45;;;2.00;;
81672;SDS011;71092;41.158;-8.680;2024-03-07T02:42:01;7.78;;;2.08;;
81672;SDS011;71092;41.158;-8.680;2024-03-07T02:44:28;8.02;;;2.20;;
81672;SDS011;71092;41.158;-8.680;2024-03-07T02:46:55;5.20;;;2.00;;
81672;SDS011;71092;41.158;-8.680;2024-03-07T02:49:21;7.93;;;1.90;;
81672;SDS011;71092;41.158;-8.680;2024-03-07T02:54:13;7.55;;;1.92;;
81672;SDS011;71092;41.158;-8.680;2024-03-07T02:56:39;4.97;;;1.65;;
81672;SDS011;71092;41.158;-8.680;2024-03-07T02:59:05;7.65;;;2.00;;
81672;SDS011;71092;41.158;-8.680;2024-03-07T03:01:32;5.35;;;1.83;;
81672;SDS011;71092;41.158;-8.680;2024-03-07T03:03:58;5.93;;;1.88;;
81672;SDS011;71092;41.158;-8.680;2024-03-07T03:08:50;6.30;;;1.40;;
81672;SDS011;71092;41.158;-8.680;2024-03-07T03:11:16;6.05;;;1.88;;
81672;SDS011;71092;41.158;-8.680;2024-03-07T03:13:42;5.28;;;1.90;;
81672;SDS011;71092;41.158;-8.680;2024-03-07T03:16:09;6.32;;;1.90;;
81672;SDS011;71092;41.158;-8.680;2024-03-07T03:18:37;6.05;;;1.83;;
81672;SDS011;71092;41.158;-8.680;2024-03-07T03:21:04;4.80;;;1.77;;
81672;SDS011;71092;41.158;-8.680;2024-03-07T03:23:30;6.13;;;1.88;;
81672;SDS011;71092;41.158;-8.680;2024-03-07T03:25:56;5.90;;;1.92;;
81672;SDS011;71092;41.158;-8.680;2024-03-07T03:28:24;4.65;;;1.80;;
81672;SDS011;71092;41.158;-8.680;2024-03-07T03:30:51;7.22;;;1.80;;
81672;SDS011;71092;41.158;-8.680;2024-03-07T03:33:18;7.22;;;1.88;;
81672;SDS011;71092;41.158;-8.680;2024-03-07T03:35:46;4.18;;;1.55;;
81672;SDS011;71092;41.158;-8.680;2024-03-07T03:38:12;3.15;;;1.63;;
81672;SDS011;71092;41.158;-8.680;2024-03-07T03:40:39;7.50;;;2.15;;
81672;SDS011;71092;41.158;-8.680;2024-03-07T03:43:08;4.80;;;1.58;;
81672;SDS011;71092;41.158;-8.680;2024-03-07T03:48:00;4.43;;;1.40;;
81672;SDS011;71092;41.158;-8.680;2024-03-07T03:50:26;4.78;;;1.48;;
81672;SDS011;71092;41.158;-8.680;2024-03-07T03:55:18;5.65;;;1.85;;
81672;SDS011;71092;41.158;-8.680;2024-03-07T03:57:46;4.80;;;1.75;;
81672;SDS011;71092;41.158;-8.680;2024-03-07T04:00:14;4.15;;;1.25;;
81672;SDS011;71092;41.158;-8.680;2024-03-07T04:02:43;7.20;;;1.67;;
81672;SDS011;71092;41.158;-8.680;2024-03-07T04:05:10;5.60;;;1.70;;
81672;SDS011;71092;41.158;-8.680;2024-03-07T04:07:37;7.18;;;1.85;;
81672;SDS011;71092;41.158;-8.680;2024-03-07T04:10:03;4.85;;;1.65;;
81672;SDS011;71092;41.158;-8.680;2024-03-07T04:12:33;5.80;;;1.85;;
81672;SDS011;71092;41.158;-8.680;2024-03-07T04:15:06;4.35;;;1.35;;
81672;SDS011;71092;41.158;-8.680;2024-03-07T04:17:39;4.75;;;1.40;;
81672;SDS011;71092;41.158;-8.680;2024-03-07T04:22:32;5.60;;;1.30;;
81672;SDS011;71092;41.158;-8.680;2024-03-07T04:25:01;5.53;;;1.70;;
81672;SDS011;71092;41.158;-8.680;2024-03-07T04:27:27;3.63;;;1.00;;
81672;SDS011;71092;41.158;-8.680;2024-03-07T04:29:54;4.43;;;1.45;;
81672;SDS011;71092;41.158;-8.680;2024-03-07T04:34:46;6.80;;;1.40;;
81672;SDS011;71092;41.158;-8.680;2024-03-07T04:37:12;6.20;;;1.33;;
81672;SDS011;71092;41.158;-8.680;2024-03-07T04:39:40;2.63;;;1.08;;
81672;SDS011;71092;41.158;-8.680;2024-03-07T04:42:06;5.95;;;1.50;;
81672;SDS011;71092;41.158;-8.680;2024-03-07T04:44:34;10.02;;;2.10;;
81672;SDS011;71092;41.158;-8.680;2024-03-07T04:47:01;8.65;;;1.80;;
81672;SDS011;71092;41.158;-8.680;2024-03-07T04:49:30;4.93;;;1.52;;
81672;SDS011;71092;41.158;-8.680;2024-03-07T04:51:57;5.28;;;1.48;;
81672;SDS011;71092;41.158;-8.680;2024-03-07T04:54:24;3.15;;;1.05;;
81672;SDS011;71092;41.158;-8.680;2024-03-07T04:56:51;6.75;;;1.67;;
81672;SDS011;71092;41.158;-8.680;2024-03-07T04:59:18;4.53;;;1.50;;
81672;SDS011;71092;41.158;-8.680;2024-03-07T05:01:45;3.58;;;1.15;;
81672;SDS011;71092;41.158;-8.680;2024-03-07T05:04:12;4.25;;;1.52;;
81672;SDS011;71092;41.158;-8.680;2024-03-07T05:06:39;5.55;;;1.60;;
81672;SDS011;71092;41.158;-8.680;2024-03-07T05:09:06;5.13;;;1.35;;
81672;SDS011;71092;41.158;-8.680;2024-03-07T05:11:34;3.80;;;1.20;;
81672;SDS011;71092;41.158;-8.680;2024-03-07T05:14:01;4.47;;;1.55;;
81672;SDS011;71092;41.158;-8.680;2024-03-07T05:16:27;3.45;;;1.50;;
81672;SDS011;71092;41.158;-8.680;2024-03-07T05:18:53;5.60;;;1.48;;
81672;SDS011;71092;41.158;-8.680;2024-03-07T05:21:24;3.90;;;1.55;;
81672;SDS011;71092;41.158;-8.680;2024-03-07T05:24:03;6.25;;;1.73;;
81672;SDS011;71092;41.158;-8.680;2024-03-07T05:26:30;3.67;;;1.58;;
81672;SDS011;71092;41.158;-8.680;2024-03-07T05:29:03;4.07;;;1.15;;
81672;SDS011;71092;41.158;-8.680;2024-03-07T05:31:39;6.15;;;1.40;;
81672;SDS011;71092;41.158;-8.680;2024-03-07T05:34:15;7.90;;;1.55;;
81672;SDS011;71092;41.158;-8.680;2024-03-07T05:36:44;5.75;;;1.40;;
81672;SDS011;71092;41.158;-8.680;2024-03-07T05:39:14;8.90;;;1.48;;
81672;SDS011;71092;41.158;-8.680;2024-03-07T05:41:42;8.48;;;2.00;;
81672;SDS011;71092;41.158;-8.680;2024-03-07T05:44:12;6.70;;;1.60;;
81672;SDS011;71092;41.158;-8.680;2024-03-07T05:46:41;6.90;;;1.70;;
81672;SDS011;71092;41.158;-8.680;2024-03-07T05:49:16;6.68;;;2.05;;
81672;SDS011;71092;41.158;-8.680;2024-03-07T05:51:43;7.10;;;1.85;;
81672;SDS011;71092;41.158;-8.680;2024-03-07T05:54:13;6.07;;;1.55;;
81672;SDS011;71092;41.158;-8.680;2024-03-07T05:56:40;9.55;;;1.73;;
81672;SDS011;71092;41.158;-8.680;2024-03-07T05:59:06;5.57;;;1.58;;
81672;SDS011;71092;41.158;-8.680;2024-03-07T06:01:33;8.63;;;1.75;;
81672;SDS011;71092;41.158;-8.680;2024-03-07T06:04:03;7.13;;;1.70;;
81672;SDS011;71092;41.158;-8.680;2024-03-07T06:06:31;16.85;;;2.75;;
81672;SDS011;71092;41.158;-8.680;2024-03-07T06:09:02;5.65;;;1.60;;
81672;SDS011;71092;41.158;-8.680;2024-03-07T06:11:37;5.70;;;1.70;;
81672;SDS011;71092;41.158;-8.680;2024-03-07T06:14:04;9.82;;;1.70;;
81672;SDS011;71092;41.158;-8.680;2024-03-07T06:16:31;6.15;;;1.67;;
81672;SDS011;71092;41.158;-8.680;2024-03-07T06:19:02;5.97;;;2.45;;
81672;SDS011;71092;41.158;-8.680;2024-03-07T06:21:29;8.48;;;1.95;;
81672;SDS011;71092;41.158;-8.680;2024-03-07T06:23:58;12.90;;;2.60;;
81672;SDS011;71092;41.158;-8.680;2024-03-07T06:26:31;9.27;;;2.40;;
81672;SDS011;71092;41.158;-8.680;2024-03-07T06:29:12;7.85;;;1.80;;
81672;SDS011;71092;41.158;-8.680;2024-03-07T06:31:40;8.63;;;2.63;;
81672;SDS011;71092;41.158;-8.680;2024-03-07T06:34:08;7.95;;;1.98;;
81672;SDS011;71092;41.158;-8.680;2024-03-07T06:36:35;10.25;;;2.20;;
81672;SDS011;71092;41.158;-8.680;2024-03-07T06:39:02;11.15;;;2.13;;
81672;SDS011;71092;41.158;-8.680;2024-03-07T06:41:34;9.65;;;1.88;;
81672;SDS011;71092;41.158;-8.680;2024-03-07T06:44:01;5.80;;;1.50;;
81672;SDS011;71092;41.158;-8.680;2024-03-07T06:46:28;7.13;;;2.00;;
81672;SDS011;71092;41.158;-8.680;2024-03-07T06:48:54;5.30;;;1.60;;
81672;SDS011;71092;41.158;-8.680;2024-03-07T06:51:24;5.70;;;1.70;;
81672;SDS011;71092;41.158;-8.680;2024-03-07T06:53:51;6.45;;;1.60;;
81672;SDS011;71092;41.158;-8.680;2024-03-07T06:56:17;6.90;;;1.85;;
81672;SDS011;71092;41.158;-8.680;2024-03-07T07:01:12;5.93;;;1.40;;
81672;SDS011;71092;41.158;-8.680;2024-03-07T07:03:41;4.00;;;1.48;;
81672;SDS011;71092;41.158;-8.680;2024-03-07T07:06:09;6.97;;;1.50;;
81672;SDS011;71092;41.158;-8.680;2024-03-07T07:08:36;4.63;;;1.40;;
81672;SDS011;71092;41.158;-8.680;2024-03-07T07:11:02;7.55;;;2.25;;
81672;SDS011;71092;41.158;-8.680;2024-03-07T07:13:29;3.28;;;1.25;;
81672;SDS011;71092;41.158;-8.680;2024-03-07T07:15:56;6.35;;;2.30;;
81672;SDS011;71092;41.158;-8.680;2024-03-07T07:18:22;6.10;;;2.72;;
81672;SDS011;71092;41.158;-8.680;2024-03-07T07:20:49;4.32;;;2.22;;
81672;SDS011;71092;41.158;-8.680;2024-03-07T07:23:19;7.28;;;2.75;;
81672;SDS011;71092;41.158;-8.680;2024-03-07T07:25:46;7.03;;;3.08;;
81672;SDS011;71092;41.158;-8.680;2024-03-07T07:28:12;5.82;;;2.78;;
81672;SDS011;71092;41.158;-8.680;2024-03-07T07:30:39;4.95;;;3.08;;
81672;SDS011;71092;41.158;-8.680;2024-03-07T07:33:05;6.90;;;3.60;;
81672;SDS011;71092;41.158;-8.680;2024-03-07T07:35:31;7.25;;;2.85;;
81672;SDS011;71092;41.158;-8.680;2024-03-07T07:37:58;5.35;;;3.10;;
81672;SDS011;71092;41.158;-8.680;2024-03-07T07:40:25;5.97;;;2.45;;
81672;SDS011;71092;41.158;-8.680;2024-03-07T07:42:53;4.30;;;2.22;;
81672;SDS011;71092;41.158;-8.680;2024-03-07T07:45:20;6.55;;;2.40;;
81672;SDS011;71092;41.158;-8.680;2024-03-07T07:47:48;4.55;;;2.47;;
81672;SDS011;71092;41.158;-8.680;2024-03-07T07:50:16;4.80;;;2.83;;
81672;SDS011;71092;41.158;-8.680;2024-03-07T07:52:48;4.45;;;2.25;;
81672;SDS011;71092;41.158;-8.680;2024-03-07T07:55:20;5.32;;;3.22;;
81672;SDS011;71092;41.158;-8.680;2024-03-07T07:57:48;6.65;;;2.40;;
81672;SDS011;71092;41.158;-8.680;2024-03-07T08:00:18;5.18;;;2.30;;
81672;SDS011;71092;41.158;-8.680;2024-03-07T08:02:52;6.30;;;2.45;;
81672;SDS011;71092;41.158;-8.680;2024-03-07T08:05:27;4.30;;;1.98;;
81672;SDS011;71092;41.158;-8.680;2024-03-07T08:07:55;7.38;;;2.40;;
81672;SDS011;71092;41.158;-8.680;2024-03-07T08:10:26;3.50;;;1.92;;
81672;SDS011;71092;41.158;-8.680;2024-03-07T08:12:57;3.47;;;2.05;;
81672;SDS011;71092;41.158;-8.680;2024-03-07T08:15:24;4.63;;;2.20;;
81672;SDS011;71092;41.158;-8.680;2024-03-07T08:17:52;2.60;;;1.83;;
81672;SDS011;71092;41.158;-8.680;2024-03-07T08:22:46;3.92;;;2.13;;
81672;SDS011;71092;41.158;-8.680;2024-03-07T08:25:14;4.15;;;2.00;;
81672;SDS011;71092;41.158;-8.680;2024-03-07T08:27:43;3.05;;;1.73;;
81672;SDS011;71092;41.158;-8.680;2024-03-07T08:30:11;4.18;;;2.00;;
81672;SDS011;71092;41.158;-8.680;2024-03-07T08:32:44;3.78;;;2.45;;
81672;SDS011;71092;41.158;-8.680;2024-03-07T08:35:13;4.20;;;2.05;;
81672;SDS011;71092;41.158;-8.680;2024-03-07T08:37:42;7.97;;;1.95;;
81672;SDS011;71092;41.158;-8.680;2024-03-07T08:40:10;5.75;;;1.98;;
81672;SDS011;71092;41.158;-8.680;2024-03-07T08:42:38;6.80;;;2.22;;
81672;SDS011;71092;41.158;-8.680;2024-03-07T08:45:07;4.32;;;2.10;;
81672;SDS011;71092;41.158;-8.680;2024-03-07T08:47:36;2.65;;;1.75;;
81672;SDS011;71092;41.158;-8.680;2024-03-07T08:50:03;10.30;;;2.00;;
81672;SDS011;71092;41.158;-8.680;2024-03-07T08:52:34;3.70;;;2.08;;
81672;SDS011;71092;41.158;-8.680;2024-03-07T08:55:09;4.22;;;2.38;;
81672;SDS011;71092;41.158;-8.680;2024-03-07T08:57:38;5.85;;;2.00;;
81672;SDS011;71092;41.158;-8.680;2024-03-07T09:00:06;5.22;;;2.30;;
81672;SDS011;71092;41.158;-8.680;2024-03-07T09:02:34;4.78;;;1.67;;
81672;SDS011;71092;41.158;-8.680;2024-03-07T09:05:04;4.60;;;2.15;;
81672;SDS011;71092;41.158;-8.680;2024-03-07T09:07:31;9.52;;;2.00;;
81672;SDS011;71092;41.158;-8.680;2024-03-07T09:09:58;6.35;;;1.80;;
81672;SDS011;71092;41.158;-8.680;2024-03-07T09:12:24;7.57;;;1.48;;
81672;SDS011;71092;41.158;-8.680;2024-03-07T09:14:54;6.90;;;1.90;;
81672;SDS011;71092;41.158;-8.680;2024-03-07T09:17:23;6.00;;;1.38;;
81672;SDS011;71092;41.158;-8.680;2024-03-07T09:19:49;6.53;;;1.30;;
81672;SDS011;71092;41.158;-8.680;2024-03-07T09:22:15;9.60;;;1.73;;
81672;SDS011;71092;41.158;-8.680;2024-03-07T09:24:41;5.22;;;1.75;;
81672;SDS011;71092;41.158;-8.680;2024-03-07T09:29:33;7.03;;;1.92;;
81672;SDS011;71092;41.158;-8.680;2024-03-07T09:31:59;7.22;;;2.10;;
81672;SDS011;71092;41.158;-8.680;2024-03-07T09:36:51;6.20;;;1.88;;
81672;SDS011;71092;41.158;-8.680;2024-03-07T09:41:44;6.47;;;1.42;;
81672;SDS011;71092;41.158;-8.680;2024-03-07T09:44:17;4.53;;;1.88;;
81672;SDS011;71092;41.158;-8.680;2024-03-07T09:46:50;5.50;;;1.58;;
81672;SDS011;71092;41.158;-8.680;2024-03-07T09:49:20;7.40;;;1.83;;
81672;SDS011;71092;41.158;-8.680;2024-03-07T09:51:47;7.43;;;1.65;;
81672;SDS011;71092;41.158;-8.680;2024-03-07T09:54:23;7.05;;;1.70;;
81672;SDS011;71092;41.158;-8.680;2024-03-07T09:56:53;5.47;;;1.48;;
81672;SDS011;71092;41.158;-8.680;2024-03-07T09:59:20;9.68;;;1.83;;
81672;SDS011;71092;41.158;-8.680;2024-03-07T10:01:54;5.93;;;1.65;;
81672;SDS011;71092;41.158;-8.680;2024-03-07T10:04:27;5.25;;;1.70;;
81672;SDS011;71092;41.158;-8.680;2024-03-07T10:06:56;7.40;;;1.83;;
81672;SDS011;71092;41.158;-8.680;2024-03-07T10:12:21;4.05;;;1.60;;
81672;SDS011;71092;41.158;-8.680;2024-03-07T10:14:50;6.13;;;1.70;;
81672;SDS011;71092;41.158;-8.680;2024-03-07T10:17:17;7.25;;;1.88;;
81672;SDS011;71092;41.158;-8.680;2024-03-07T10:19:47;6.63;;;2.05;;
81672;SDS011;71092;41.158;-8.680;2024-03-07T10:22:14;4.90;;;1.35;;
81672;SDS011;71092;41.158;-8.680;2024-03-07T10:24:48;6.90;;;2.10;;
81672;SDS011;71092;41.158;-8.680;2024-03-07T10:27:22;4.57;;;1.70;;
81672;SDS011;71092;41.158;-8.680;2024-03-07T10:29:48;8.15;;;1.70;;
81672;SDS011;71092;41.158;-8.680;2024-03-07T10:32:20;6.32;;;1.63;;
81672;SDS011;71092;41.158;-8.680;2024-03-07T10:34:47;9.35;;;2.17;;
81672;SDS011;71092;41.158;-8.680;2024-03-07T10:37:14;7.95;;;1.88;;
81672;SDS011;71092;41.158;-8.680;2024-03-07T10:39:46;7.35;;;1.70;;
81672;SDS011;71092;41.158;-8.680;2024-03-07T10:42:15;7.88;;;2.28;;
81672;SDS011;71092;41.158;-8.680;2024-03-07T10:44:46;8.00;;;2.17;;
81672;SDS011;71092;41.158;-8.680;2024-03-07T10:47:16;11.75;;;2.25;;
81672;SDS011;71092;41.158;-8.680;2024-03-07T10:52:46;12.80;;;2.97;;
81672;SDS011;71092;41.158;-8.680;2024-03-07T10:57:50;10.60;;;2.80;;
81672;SDS011;71092;41.158;-8.680;2024-03-07T11:00:25;6.43;;;2.17;;
81672;SDS011;71092;41.158;-8.680;2024-03-07T11:03:02;7.50;;;1.95;;
81672;SDS011;71092;41.158;-8.680;2024-03-07T11:05:34;7.82;;;1.95;;
81672;SDS011;71092;41.158;-8.680;2024-03-07T11:08:01;8.98;;;2.00;;
81672;SDS011;71092;41.158;-8.680;2024-03-07T11:10:38;11.52;;;2.85;;
81672;SDS011;71092;41.158;-8.680;2024-03-07T11:13:04;4.95;;;1.50;;
81672;SDS011;71092;41.158;-8.680;2024-03-07T11:15:32;14.95;;;1.95;;
81672;SDS011;71092;41.158;-8.680;2024-03-07T11:17:58;9.38;;;2.42;;
81672;SDS011;71092;41.158;-8.680;2024-03-07T11:20:25;8.60;;;1.90;;
81672;SDS011;71092;41.158;-8.680;2024-03-07T11:22:52;6.60;;;2.05;;
81672;SDS011;71092;41.158;-8.680;2024-03-07T11:25:22;7.35;;;1.98;;
81672;SDS011;71092;41.158;-8.680;2024-03-07T11:27:52;10.57;;;2.55;;
81672;SDS011;71092;41.158;-8.680;2024-03-07T11:30:20;7.30;;;2.25;;
81672;SDS011;71092;41.158;-8.680;2024-03-07T11:32:47;12.90;;;2.08;;
81672;SDS011;71092;41.158;-8.680;2024-03-07T11:35:15;11.02;;;2.95;;
81672;SDS011;71092;41.158;-8.680;2024-03-07T11:42:47;10.45;;;2.47;;
81672;SDS011;71092;41.158;-8.680;2024-03-07T11:45:13;9.52;;;2.58;;
81672;SDS011;71092;41.158;-8.680;2024-03-07T11:47:58;10.77;;;2.47;;
81672;SDS011;71092;41.158;-8.680;2024-03-07T11:50:38;14.02;;;3.58;;
81672;SDS011;71092;41.158;-8.680;2024-03-07T11:53:06;14.35;;;3.17;;
81672;SDS011;71092;41.158;-8.680;2024-03-07T11:55:34;10.45;;;2.38;;
81672;SDS011;71092;41.158;-8.680;2024-03-07T11:58:17;9.32;;;2.63;;
81672;SDS011;71092;41.158;-8.680;2024-03-07T12:00:47;13.95;;;2.97;;
81672;SDS011;71092;41.158;-8.680;2024-03-07T12:03:15;10.65;;;2.50;;
81672;SDS011;71092;41.158;-8.680;2024-03-07T12:05:48;13.10;;;2.63;;
81672;SDS011;71092;41.158;-8.680;2024-03-07T12:08:16;12.85;;;3.20;;
81672;SDS011;71092;41.158;-8.680;2024-03-07T12:10:44;12.18;;;2.60;;
81672;SDS011;71092;41.158;-8.680;2024-03-07T12:13:10;13.55;;;2.60;;
81672;SDS011;71092;41.158;-8.680;2024-03-07T12:15:40;13.25;;;3.22;;
81672;SDS011;71092;41.158;-8.680;2024-03-07T12:18:08;10.63;;;2.90;;
81672;SDS011;71092;41.158;-8.680;2024-03-07T12:20:39;9.27;;;2.88;;
81672;SDS011;71092;41.158;-8.680;2024-03-07T12:23:07;10.50;;;2.50;;
81672;SDS011;71092;41.158;-8.680;2024-03-07T12:25:38;18.88;;;3.22;;
81672;SDS011;71092;41.158;-8.680;2024-03-07T12:28:06;15.25;;;3.50;;
81672;SDS011;71092;41.158;-8.680;2024-03-07T12:30:59;10.57;;;2.80;;
81672;SDS011;71092;41.158;-8.680;2024-03-07T12:33:28;10.73;;;2.78;;
81672;SDS011;71092;41.158;-8.680;2024-03-07T12:35:56;12.48;;;2.85;;
81672;SDS011;71092;41.158;-8.680;2024-03-07T12:38:36;13.57;;;2.75;;
81672;SDS011;71092;41.158;-8.680;2024-03-07T12:41:02;14.48;;;3.55;;
81672;SDS011;71092;41.158;-8.680;2024-03-07T12:43:34;9.80;;;3.47;;
81672;SDS011;71092;41.158;-8.680;2024-03-07T12:46:00;20.17;;;3.28;;
81672;SDS011;71092;41.158;-8.680;2024-03-07T12:48:27;11.23;;;3.05;;
81672;SDS011;71092;41.158;-8.680;2024-03-07T12:50:53;11.63;;;3.35;;
81672;SDS011;71092;41.158;-8.680;2024-03-07T12:53:20;14.27;;;3.38;;
81672;SDS011;71092;41.158;-8.680;2024-03-07T12:55:51;14.00;;;3.08;;
81672;SDS011;71092;41.158;-8.680;2024-03-07T12:58:18;13.15;;;3.47;;
81672;SDS011;71092;41.158;-8.680;2024-03-07T13:00:55;14.05;;;3.63;;
81672;SDS011;71092;41.158;-8.680;2024-03-07T13:03:22;14.90;;;3.63;;
81672;SDS011;71092;41.158;-8.680;2024-03-07T13:05:49;15.48;;;3.63;;
81672;SDS011;71092;41.158;-8.680;2024-03-07T13:08:15;15.60;;;3.90;;
81672;SDS011;71092;41.158;-8.680;2024-03-07T13:10:41;15.73;;;3.72;;
81672;SDS011;71092;41.158;-8.680;2024-03-07T13:13:09;15.10;;;3.20;;
81672;SDS011;71092;41.158;-8.680;2024-03-07T13:15:39;11.32;;;3.22;;
81672;SDS011;71092;41.158;-8.680;2024-03-07T13:18:08;18.48;;;3.70;;
81672;SDS011;71092;41.158;-8.680;2024-03-07T13:20:35;13.75;;;3.67;;
81672;SDS011;71092;41.158;-8.680;2024-03-07T13:23:02;14.77;;;3.60;;
81672;SDS011;71092;41.158;-8.680;2024-03-07T13:25:28;12.73;;;3.58;;
81672;SDS011;71092;41.158;-8.680;2024-03-07T13:30:30;20.95;;;4.40;;
81672;SDS011;71092;41.158;-8.680;2024-03-07T13:33:02;18.85;;;4.60;;
81672;SDS011;71092;41.158;-8.680;2024-03-07T13:35:29;18.23;;;3.85;;
81672;SDS011;71092;41.158;-8.680;2024-03-07T13:37:56;13.77;;;3.80;;
81672;SDS011;71092;41.158;-8.680;2024-03-07T13:40:23;18.23;;;4.32;;
81672;SDS011;71092;41.158;-8.680;2024-03-07T13:43:00;23.70;;;4.18;;
81672;SDS011;71092;41.158;-8.680;2024-03-07T13:45:27;21.55;;;4.57;;
81672;SDS011;71092;41.158;-8.680;2024-03-07T13:47:57;27.17;;;5.65;;
81672;SDS011;71092;41.158;-8.680;2024-03-07T13:50:25;18.17;;;4.30;;
81672;SDS011;71092;41.158;-8.680;2024-03-07T13:52:54;22.85;;;4.60;;
81672;SDS011;71092;41.158;-8.680;2024-03-07T13:58:23;18.00;;;4.35;;
81672;SDS011;71092;41.158;-8.680;2024-03-07T14:29:52;16.90;;;4.68;;
81672;SDS011;71092;41.158;-8.680;2024-03-07T14:32:22;27.92;;;6.22;;
81672;SDS011;71092;41.158;-8.680;2024-03-07T14:34:54;19.30;;;6.47;;
81672;SDS011;71092;41.158;-8.680;2024-03-07T14:37:23;23.92;;;5.25;;
81672;SDS011;71092;41.158;-8.680;2024-03-07T14:40:04;22.83;;;4.57;;
81672;SDS011;71092;41.158;-8.680;2024-03-07T14:42:41;20.88;;;6.38;;
81672;SDS011;71092;41.158;-8.680;2024-03-07T14:45:15;22.55;;;4.70;;
81672;SDS011;71092;41.158;-8.680;2024-03-07T14:47:46;25.02;;;4.95;;
81672;SDS011;71092;41.158;-8.680;2024-03-07T14:50:14;16.30;;;4.75;;
81672;SDS011;71092;41.158;-8.680;2024-03-07T14:52:42;16.48;;;5.20;;
81672;SDS011;71092;41.158;-8.680;2024-03-07T14:55:14;18.88;;;5.28;;
81672;SDS011;71092;41.158;-8.680;2024-03-07T14:57:40;23.92;;;5.32;;
81672;SDS011;71092;41.158;-8.680;2024-03-07T15:00:09;22.10;;;5.05;;
81672;SDS011;71092;41.158;-8.680;2024-03-07T15:02:46;23.20;;;4.55;;
81672;SDS011;71092;41.158;-8.680;2024-03-07T15:05:14;14.45;;;4.07;;
81672;SDS011;71092;41.158;-8.680;2024-03-07T15:07:42;18.95;;;4.38;;
81672;SDS011;71092;41.158;-8.680;2024-03-07T15:10:19;19.50;;;4.75;;
81672;SDS011;71092;41.158;-8.680;2024-03-07T15:12:48;21.52;;;6.05;;
81672;SDS011;71092;41.158;-8.680;2024-03-07T15:15:17;21.33;;;5.55;;
81672;SDS011;71092;41.158;-8.680;2024-03-07T15:17:50;17.63;;;4.55;;
81672;SDS011;71092;41.158;-8.680;2024-03-07T15:20:16;20.65;;;4.82;;
81672;SDS011;71092;41.158;-8.680;2024-03-07T15:22:53;18.70;;;5.45;;
81672;SDS011;71092;41.158;-8.680;2024-03-07T15:25:21;17.35;;;4.60;;
81672;SDS011;71092;41.158;-8.680;2024-03-07T15:27:49;19.60;;;4.97;;
81672;SDS011;71092;41.158;-8.680;2024-03-07T15:30:17;18.63;;;5.00;;
81672;SDS011;71092;41.158;-8.680;2024-03-07T15:32:44;19.85;;;4.50;;
81672;SDS011;71092;41.158;-8.680;2024-03-07T15:35:11;22.25;;;4.60;;
81672;SDS011;71092;41.158;-8.680;2024-03-07T15:37:39;21.45;;;4.65;;
81672;SDS011;71092;41.158;-8.680;2024-03-07T15:40:07;23.13;;;5.13;;
81672;SDS011;71092;41.158;-8.680;2024-03-07T15:42:41;19.85;;;5.07;;
81672;SDS011;71092;41.158;-8.680;2024-03-07T15:45:15;17.85;;;4.55;;
81672;SDS011;71092;41.158;-8.680;2024-03-07T15:50:30;21.95;;;4.65;;
81672;SDS011;71092;41.158;-8.680;2024-03-07T15:52:57;16.83;;;4.30;;
81672;SDS011;71092;41.158;-8.680;2024-03-07T15:55:27;29.92;;;5.13;;
81672;SDS011;71092;41.158;-8.680;2024-03-07T15:57:55;19.98;;;5.32;;
81672;SDS011;71092;41.158;-8.680;2024-03-07T16:00:24;23.55;;;4.85;;
81672;SDS011;71092;41.158;-8.680;2024-03-07T16:02:56;20.23;;;4.47;;
81672;SDS011;71092;41.158;-8.680;2024-03-07T16:05:29;21.90;;;5.22;;